• Join FlightAware (Why Join?)
  • Login
  • US Flag 
09:46AM EDT


 

Airport Tracker/Info


-or-


 

Live Flight TrackerFlight Track Log ✈ FDX1570 ✈ 12-Jun-2013 ✈ KMEM - KALB

Flight Track Log - Related Links

Times and Time Zones

All times are in EDT time to prevent confusion due to time zone crossing. See the FDX1570 flight status page for this flight to view local times or setup timezone preferences in your user account.

Time Position Orientation Groundspeed Altitude Reporting Facility
EDT Latitude Longitude Course Direction KTS MPH feet Rate Location/Type
04:52AM 35.0333 -89.9667 180° South 174 200 1,000  Level KMEM
04:53AM 34.9833 -89.9667 180° South 207 238 3,100 2,460 Climbing KMEM
04:54AM 34.9833 -89.8667 90° East 301 346 6,200 2,760 Climbing KMEM
04:55AM 35.0167 -89.7667 68° East 308 354 9,200 2,340 Climbing KMEM
04:56AM 35.0533 -89.6722 65° Northeast 343 395 11,300 1,680 Climbing Memphis Center
04:57AM 35.0925 -89.5603 67° East 343 395 12,700 1,920 Climbing Memphis Center
04:58AM 35.1353 -89.4378 67° East 369 425 15,200 2,220 Climbing Memphis Center
04:59AM 35.1803 -89.3053 67° East 401 461 17,200 1,980 Climbing Memphis Center
05:00AM 35.2269 -89.1750 66° East 417 480 19,200 1,860 Climbing Memphis Center
05:01AM 35.2944 -89.0342 60° Northeast 417 480 21,000 1,680 Climbing Memphis Center
05:02AM 35.3639 -88.9033 57° Northeast 440 506 22,600 1,860 Climbing Memphis Center
05:08AM 35.7800 -88.0880 57° Northeast 495 570 33,600 1,920 Climbing FlightAware
05:09AM 35.8430 -87.9640 58° Northeast 488 562 35,500 1,980 Climbing FlightAware
05:10AM 35.8890 -87.8720 58° Northeast 485 558 36,700 1,020 Climbing FlightAware
05:10AM 35.9420 -87.7660 58° Northeast 482 555 37,000 180 Climbing FlightAware
05:11AM 35.9920 -87.6660 58° Northeast 481 554 37,000  Level FlightAware
05:12AM 36.0370 -87.5770 58° Northeast 482 555 37,000  Level FlightAware
05:12AM 36.0870 -87.4750 59° Northeast 485 558 37,000  Level FlightAware
05:13AM 36.1370 -87.3740 58° Northeast 484 557 37,000  Level FlightAware
05:14AM 36.1840 -87.2790 58° Northeast 484 557 37,000  Level FlightAware
05:15AM 36.2350 -87.1770 58° Northeast 486 559 37,000  Level FlightAware
05:15AM 36.2860 -87.0720 59° Northeast 486 559 37,000 180 Level FlightAware
05:16AM 36.3330 -86.9750 59° Northeast 485 558 37,300 900 Climbing FlightAware
05:17AM 36.3750 -86.8890 59° Northeast 483 556 38,200 1,080 Climbing FlightAware
05:17AM 36.4280 -86.7820 58° Northeast 488 562 38,800 540 Climbing FlightAware
05:18AM 36.4770 -86.6780 60° Northeast 488 562 39,000 120 Climbing FlightAware
05:19AM 36.5280 -86.5750 58° Northeast 489 563 39,000  Level FlightAware
05:19AM 36.5740 -86.4790 59° Northeast 489 563 39,000  Level FlightAware
05:20AM 36.6229 -86.3770 59° Northeast 490 564 39,000  Level FlightAware ADS-B
05:21AM 36.6578 -86.3043 59° Northeast 491 565 39,000  Level FlightAware ADS-B
05:21AM 36.6934 -86.2290 59° Northeast 490 564 39,000  Level FlightAware ADS-B
05:22AM 36.7290 -86.1562 59° Northeast 491 565 39,000  Level FlightAware ADS-B
05:22AM 36.7637 -86.0831 59° Northeast 491 565 39,000  Level FlightAware ADS-B
05:23AM 36.7985 -86.0099 59° Northeast 491 565 39,000  Level FlightAware ADS-B
05:23AM 36.8338 -85.9346 60° Northeast 490 564 39,000  Level FlightAware ADS-B
05:24AM 36.9130 -85.7670 59° Northeast 485 558 39,000  Level FlightAware
05:25AM 36.9510 -85.6880 59° Northeast 485 558 39,000  Level FlightAware
05:26AM 37.0145 -85.5635 57° Northeast 481 554 39,000  Level FlightAware ADS-B
05:26AM 37.0662 -85.4739 54° Northeast 479 551 39,000  Level FlightAware ADS-B
05:27AM 37.1080 -85.4025 54° Northeast 478 550 39,000  Level FlightAware ADS-B
05:27AM 37.1479 -85.3335 54° Northeast 476 548 39,000  Level FlightAware ADS-B
05:28AM 37.1887 -85.2647 53° Northeast 475 547 39,000  Level FlightAware ADS-B
05:28AM 37.2281 -85.1957 54° Northeast 475 547 39,000  Level FlightAware ADS-B
05:29AM 37.2692 -85.1264 53° Northeast 476 548 39,000  Level FlightAware ADS-B
05:30AM 37.3088 -85.0567 54° Northeast 476 548 39,000  Level FlightAware ADS-B
05:30AM 37.3586 -84.9691 54° Northeast 477 549 39,000  Level FlightAware ADS-B
05:31AM 37.4131 -84.8746 54° Northeast 477 549 39,000  Level FlightAware ADS-B
05:31AM 37.4536 -84.8024 55° Northeast 478 550 39,000  Level FlightAware ADS-B
05:32AM 37.5000 -84.7210 54° Northeast 478 550 39,000  Level FlightAware ADS-B
05:33AM 37.5500 -84.6370 53° Northeast 476 548 39,000  Level FlightAware
05:33AM 37.5890 -84.5680 54° Northeast 476 548 39,000  Level FlightAware
05:34AM 37.6630 -84.4320 55° Northeast 477 549 39,000  Level FlightAware
05:35AM 37.7150 -84.3410 54° Northeast 475 547 39,000  Level FlightAware
05:35AM 37.7630 -84.2550 55° Northeast 475 547 39,000  Level FlightAware
05:36AM 37.8260 -84.1440 54° Northeast 475 547 39,000  Level FlightAware
05:37AM 37.8740 -84.0570 55° Northeast 476 548 39,000  Level FlightAware
05:38AM 37.9300 -83.9550 55° Northeast 475 547 39,000  Level FlightAware
05:38AM 37.9730 -83.8800 54° Northeast 475 547 39,000  Level FlightAware
05:39AM 38.0270 -83.7860 54° Northeast 475 547 39,000  Level FlightAware
05:40AM 38.0660 -83.7170 54° Northeast 475 547 39,000  Level FlightAware
05:41AM 38.1340 -83.5980 54° Northeast 475 547 39,000  Level FlightAware
05:41AM 38.1740 -83.5290 54° Northeast 475 547 39,000  Level FlightAware
05:42AM 38.2620 -83.3530 57° Northeast 465 535 39,000  Level FlightAware
05:43AM 38.3140 -83.2560 56° Northeast 467 537 39,000  Level FlightAware
05:44AM 38.3670 -83.1580 55° Northeast 467 537 39,000  Level FlightAware
05:44AM 38.4160 -83.0680 55° Northeast 465 535 39,000  Level FlightAware
05:45AM 38.4690 -82.9710 55° Northeast 465 535 39,000  Level FlightAware
05:46AM 38.5200 -82.8760 56° Northeast 466 536 39,000  Level FlightAware
05:46AM 38.5610 -82.7980 56° Northeast 468 539 39,000  Level FlightAware
05:47AM 38.6150 -82.6980 55° Northeast 469 540 39,000  Level FlightAware
05:48AM 38.6690 -82.5970 56° Northeast 471 542 39,000  Level FlightAware
05:48AM 38.7260 -82.4900 56° Northeast 474 545 39,000  Level FlightAware
05:49AM 38.7720 -82.4040 56° Northeast 476 548 39,000  Level FlightAware
05:50AM 38.8310 -82.2910 56° Northeast 478 550 39,000  Level FlightAware
05:51AM 38.8840 -82.1900 56° Northeast 479 551 39,000  Level FlightAware
05:51AM 38.9330 -82.0980 56° Northeast 480 552 39,000  Level FlightAware
05:52AM 38.9850 -81.9970 56° Northeast 480 552 39,000  Level FlightAware
05:53AM 39.0370 -81.8970 56° Northeast 479 551 39,000  Level FlightAware
05:53AM 39.0890 -81.7980 56° Northeast 478 550 39,000  Level FlightAware
05:54AM 39.1400 -81.7000 56° Northeast 478 550 39,000  Level FlightAware
05:55AM 39.1820 -81.6200 56° Northeast 478 550 39,000  Level FlightAware
05:56AM 39.2560 -81.4750 57° Northeast 479 551 39,000  Level FlightAware
05:56AM 39.3040 -81.3820 56° Northeast 479 551 39,000  Level FlightAware
05:57AM 39.3510 -81.2890 57° Northeast 480 552 39,000  Level FlightAware
05:58AM 39.4020 -81.1910 56° Northeast 481 554 39,000  Level FlightAware
05:58AM 39.4620 -81.0700 57° Northeast 481 554 39,000  Level FlightAware
05:59AM 39.5070 -80.9810 57° Northeast 481 554 39,000  Level FlightAware
06:00AM 39.5800 -80.8390 56° Northeast 480 552 39,000  Level FlightAware
06:01AM 39.6410 -80.7160 57° Northeast 481 554 39,000  Level FlightAware
06:02AM 39.7020 -80.5950 57° Northeast 480 552 39,000  Level FlightAware
06:02AM 39.7480 -80.5030 57° Northeast 482 555 39,000  Level FlightAware
06:03AM 39.7910 -80.4150 58° Northeast 484 557 39,000  Level FlightAware
06:04AM 39.8480 -80.3020 57° Northeast 485 558 39,000  Level FlightAware
06:05AM 39.9160 -80.1650 57° Northeast 487 560 39,000  Level FlightAware
06:05AM 39.9630 -80.0710 57° Northeast 486 559 39,000  Level FlightAware
06:06AM 40.0240 -79.9450 58° Northeast 486 559 39,000  Level FlightAware
06:07AM 40.0730 -79.8460 57° Northeast 486 559 39,000  Level FlightAware
06:08AM 40.1260 -79.7370 58° Northeast 488 562 39,000  Level FlightAware
06:08AM 40.1740 -79.6370 58° Northeast 490 564 39,000  Level FlightAware
06:09AM 40.2250 -79.5310 58° Northeast 493 567 39,000  Level FlightAware
06:09AM 40.2700 -79.4380 58° Northeast 493 567 39,000  Level FlightAware
06:10AM 40.3280 -79.3190 57° Northeast 496 571 39,000  Level FlightAware
06:11AM 40.3980 -79.1710 58° Northeast 497 572 39,000  Level FlightAware
06:12AM 40.4500 -79.0610 58° Northeast 498 573 39,000  Level FlightAware
06:13AM 40.4970 -78.9630 58° Northeast 498 573 39,000  Level FlightAware
06:13AM 40.5530 -78.8450 58° Northeast 497 572 39,000  Level FlightAware
06:14AM 40.6010 -78.7430 58° Northeast 493 567 39,000  Level FlightAware
06:15AM 40.6780 -78.5780 58° Northeast 492 566 39,000  Level FlightAware
06:16AM 40.7260 -78.4780 58° Northeast 492 566 39,000  Level FlightAware
06:16AM 40.7710 -78.3810 58° Northeast 490 564 39,000  Level FlightAware
06:17AM 40.8310 -78.2520 58° Northeast 486 559 39,000  Level FlightAware
06:18AM 40.8780 -78.1510 58° Northeast 486 559 39,000  Level FlightAware
06:19AM 40.9250 -78.0490 59° Northeast 486 559 39,000  Level FlightAware
06:19AM 40.9800 -77.9390 56° Northeast 480 552 39,000 -300 Level FlightAware
06:20AM 41.0070 -77.8930 52° Northeast 476 548 38,700 -1,200 Descending FlightAware
06:21AM 41.1190 -77.7260 48° Northeast 479 551 37,100 -1,200 Descending FlightAware
06:22AM 41.1660 -77.6550 49° Northeast 479 551 36,500 -1,080 Descending FlightAware
06:22AM 41.2430 -77.5390 49° Northeast 476 548 35,600 -900 Descending FlightAware
06:23AM 41.2980 -77.4580 48° Northeast 469 540 35,200 -840 Descending FlightAware
06:24AM 41.3590 -77.3660 49° Northeast 469 540 34,500 -1,380 Descending FlightAware
06:24AM 41.4180 -77.2770 49° Northeast 469 540 33,400 -1,800 Descending FlightAware
06:25AM 41.4750 -77.1900 49° Northeast 464 534 32,100 -1,980 Descending FlightAware
06:26AM 41.5820 -77.0280 49° Northeast 445 512 29,500 -1,620 Descending FlightAware
06:27AM 41.6360 -76.9460 49° Northeast 440 506 29,000 -420 Descending FlightAware
06:28AM 41.6940 -76.8560 49° Northeast 463 533 29,000  Level FlightAware
06:28AM 41.7420 -76.7600 56° Northeast 504 580 29,000 -720 Level FlightAware
06:29AM 41.7850 -76.6200 68° East 513 590 28,000 -1,320 Descending FlightAware
06:30AM 41.8210 -76.5060 67° East 515 593 27,200 -1,080 Descending FlightAware
06:31AM 41.8660 -76.3750 65° Northeast 513 590 26,500 -1,200 Descending FlightAware
06:31AM 41.9070 -76.2820 59° Northeast 508 585 25,600 -1,500 Descending FlightAware
06:32AM 41.9660 -76.1360 61° Northeast 521 600 24,400 -960 Descending FlightAware
06:33AM 41.9970 -76.0460 65° Northeast 520 598 24,200 -180 Descending FlightAware
06:33AM 42.0380 -75.9260 65° Northeast 520 598 24,200 -120 Level FlightAware
06:34AM 42.1000 -75.7420 66° East 503 579 24,000 -180 Descending FlightAware
06:35AM 42.1300 -75.6550 65° Northeast 503 579 24,000  Level FlightAware
06:36AM 42.2060 -75.4400 64° Northeast 506 582 24,000  Level FlightAware
06:37AM 42.2390 -75.3430 65° Northeast 499 574 24,000 -1,200 Level FlightAware
06:37AM 42.2910 -75.1880 66° East 461 531 22,200 -1,140 Descending FlightAware
06:38AM 42.3210 -75.1020 65° Northeast 461 531 22,200  Level FlightAware
06:39AM 42.3580 -74.9930 65° Northeast 461 531 22,200  Level FlightAware
06:40AM 42.3860 -74.9130 65° Northeast 461 531 22,200  Level FlightAware
06:41AM 42.4330 -74.7750 65° Northeast 461 531 22,200  Level FlightAware
06:41AM 42.4620 -74.6920 65° Northeast 461 531 22,200 -7,740 Level FlightAware
06:42AM 42.5061 -74.5411 65° Northeast 392 451 11,700 -8,880 Descending Boston Center
06:42AM 42.5281 -74.4800 64° Northeast 374 430 11,300 -600 Descending Boston Center
06:43AM 42.5478 -74.4214 65° Northeast 369 425 11,100 -720 Descending Boston Center
06:43AM 42.5653 -74.3683 66° East 309 356 10,600 -1,020 Descending Boston Center
06:44AM 42.5789 -74.3122 72° East 314 361 10,100 -1,320 Descending Boston Center
06:44AM 42.5817 -74.2561 86° East 305 351 9,300 -1,200 Descending Boston Center
06:45AM 42.5869 -74.1969 83° East 300 345 8,900 -1,320 Descending Boston Center
06:45AM 42.5919 -74.1464 82° East 297 342 8,000 -1,800 Descending Boston Center
06:46AM 42.5969 -74.0872 83° East 290 334 7,100 -1,620 Descending Boston Center
06:47AM 42.6019 -74.0225 84° East 275 316 6,200 -1,200 Descending Boston Center
06:47AM 42.6044 -74.0000 81° East 276 318 5,900 -1,440 Descending Boston Center
06:48AM 42.6094 -73.9267 85° East 260 299 4,800 -1,440 Descending Boston Center
06:48AM 42.6119 -73.9014 82° East 270 311 4,500 -1,320 Descending Boston Center
06:49AM 42.6189 -73.8339 82° East 249 287 3,500 -1,200 Descending Boston Center
06:49AM 42.6194 -73.8056 88° East 258 297 3,300 -600 Descending Boston Center
06:50AM 42.6222 -73.7492 86° East 233 268 3,000 -300 Descending Boston Center
06:50AM 42.6247 -73.7128 85° East 235 270 3,000  Level Boston Center
06:51AM 42.6314 -73.6706 78° East 207 238 3,000 -240 Level Boston Center
06:51AM 42.6481 -73.6594 26° Northeast 200 230 2,800 -720 Descending Boston Center
06:52AM 42.6775 -73.6489 15° North 171 197 2,300 -600 Descending Boston Center
06:52AM 42.6983 -73.6436 11° North 157 181 2,200 -240 Descending Boston Center
06:53AM 42.7233 -73.6525 345° North 133 153 2,100 -240 Descending Boston Center
06:53AM 42.7294 -73.6611 314° West 135 155 2,000 -300 Descending Boston Center
06:54AM 42.7500 -73.6756 333° Northwest 109 125 1,800 -180 Descending Boston Center
06:54AM 42.7497 -73.7011 269° West 115 132 1,800 -300 Level Boston Center
06:55AM 42.7517 -73.7153 281° West 110 127 1,500 -300 Descending Boston Center
06:55AM 42.7600 -73.7325 303° West 108 124 1,500 -600 Level Boston Center
06:56AM 42.7492 -73.7575 239° Southwest 101 116 900 -1,440 Descending Boston Center